createdAt,value
2023-04-15T00:01:29.804Z,38.50
2023-04-15T00:03:31.722Z,39.00
2023-04-15T00:05:33.818Z,38.40
2023-04-15T00:07:35.929Z,38.40
2023-04-15T00:09:37.721Z,38.50
2023-04-15T00:11:39.452Z,38.50
2023-04-15T00:13:41.381Z,38.60
2023-04-15T00:15:43.269Z,38.60
2023-04-15T00:17:45.249Z,38.60
2023-04-15T00:19:46.980Z,38.60
2023-04-15T00:21:48.766Z,38.70
2023-04-15T00:23:50.481Z,38.60
2023-04-15T00:25:52.287Z,39.20
2023-04-15T00:27:54.022Z,38.60
2023-04-15T00:29:55.837Z,38.50
2023-04-15T00:31:57.676Z,38.50
2023-04-15T00:33:59.483Z,38.50
2023-04-15T00:36:01.216Z,38.50
2023-04-15T00:38:03.901Z,38.50
2023-04-15T00:40:06.033Z,38.40
2023-04-15T00:42:07.876Z,38.50
2023-04-15T00:44:09.577Z,38.40
2023-04-15T00:46:13.017Z,38.40
2023-04-15T00:48:15.638Z,38.50
2023-04-15T00:50:17.461Z,38.40
2023-04-15T00:52:19.196Z,38.40
2023-04-15T00:54:21.332Z,38.50
2023-04-15T00:56:23.129Z,38.60
2023-04-15T00:58:26.403Z,38.70
2023-04-15T01:00:28.105Z,38.50
2023-04-15T01:02:31.383Z,38.60
2023-04-15T01:04:33.222Z,38.60
2023-04-15T01:06:35.016Z,38.70
2023-04-15T01:08:36.767Z,38.50
2023-04-15T01:10:39.307Z,38.50
2023-04-15T01:12:41.052Z,38.60
2023-04-15T01:14:42.988Z,38.80
2023-04-15T01:16:44.736Z,38.80
2023-04-15T01:18:47.121Z,38.60
2023-04-15T01:20:48.956Z,38.60
2023-04-15T01:22:50.877Z,38.60
2023-04-15T01:25:01.421Z,38.60
2023-04-15T01:27:03.486Z,38.70
2023-04-15T01:29:05.305Z,38.60
2023-04-15T01:31:07.147Z,38.60
2023-04-15T01:33:12.029Z,38.60
2023-04-15T01:35:13.821Z,38.60
2023-04-15T01:37:15.569Z,38.70
2023-04-15T01:39:18.450Z,38.60
2023-04-15T01:41:26.839Z,38.60
2023-04-15T01:43:28.668Z,38.70
2023-04-15T01:45:30.438Z,38.70
2023-04-15T01:47:32.262Z,38.70
2023-04-15T01:49:34.180Z,38.70
2023-04-15T01:51:36.039Z,38.80
2023-04-15T01:53:37.782Z,39.20
2023-04-15T01:55:39.594Z,38.70
2023-04-15T01:57:41.691Z,38.70
2023-04-15T01:59:43.594Z,38.80
2023-04-15T02:01:45.414Z,38.80
2023-04-15T02:03:47.438Z,38.80
2023-04-15T02:05:50.448Z,38.70
2023-04-15T02:07:52.222Z,38.80
2023-04-15T02:09:53.958Z,38.80
2023-04-15T02:11:55.933Z,38.70
2023-04-15T02:13:58.780Z,38.80
2023-04-15T02:16:01.230Z,38.90
2023-04-15T02:18:03.019Z,38.70
2023-04-15T02:20:05.138Z,38.80
2023-04-15T02:22:07.031Z,38.80
2023-04-15T02:24:08.806Z,38.80
2023-04-15T02:26:10.523Z,39.50
2023-04-15T02:28:12.325Z,38.90
2023-04-15T02:30:14.110Z,38.80
2023-04-15T02:32:15.882Z,38.90
2023-04-15T02:34:17.654Z,38.80
2023-04-15T02:36:20.166Z,38.90
2023-04-15T02:38:21.876Z,38.90
2023-04-15T02:40:23.661Z,38.80
2023-04-15T02:42:25.744Z,38.80
2023-04-15T02:44:27.538Z,38.90
2023-04-15T02:46:33.333Z,38.90
2023-04-15T02:48:35.174Z,38.80
2023-04-15T02:50:38.594Z,38.80
2023-04-15T02:52:40.841Z,38.80
2023-04-15T02:54:42.717Z,38.80
2023-04-15T02:56:44.710Z,38.80
2023-04-15T02:58:46.640Z,38.90
2023-04-15T03:00:48.895Z,38.90
2023-04-15T03:02:50.989Z,38.90
2023-04-15T03:04:53.020Z,38.90
2023-04-15T03:06:54.759Z,38.90
2023-04-15T03:08:57.286Z,39.00
2023-04-15T03:10:59.319Z,39.00
2023-04-15T03:13:01.132Z,38.90
2023-04-15T03:15:03.127Z,38.90
2023-04-15T03:17:11.231Z,38.90
2023-04-15T03:19:13.926Z,38.90
2023-04-15T03:21:17.583Z,38.90
2023-04-15T03:23:20.344Z,39.00
2023-04-15T03:25:23.095Z,39.00
2023-04-15T03:27:25.075Z,38.90
2023-04-15T03:29:30.133Z,38.90
2023-04-15T03:31:31.864Z,38.90
2023-04-15T03:33:33.719Z,38.90
2023-04-15T03:35:35.468Z,39.00
2023-04-15T03:37:37.245Z,38.90
2023-04-15T03:39:38.979Z,39.00
2023-04-15T03:41:40.767Z,39.00
2023-04-15T03:43:42.476Z,38.90
2023-04-15T03:45:44.280Z,38.90
2023-04-15T03:47:46.073Z,39.00
2023-04-15T03:51:49.910Z,38.50
2023-04-15T03:53:51.733Z,39.00
2023-04-15T03:55:53.470Z,39.00
2023-04-15T03:57:55.221Z,39.00
2023-04-15T03:59:56.964Z,39.00
2023-04-15T04:01:58.992Z,39.00
2023-04-15T04:04:00.819Z,39.10
2023-04-15T04:06:02.932Z,39.10
2023-04-15T04:08:04.824Z,39.10
2023-04-15T04:10:06.935Z,39.10
2023-04-15T04:12:08.670Z,39.10
2023-04-15T04:14:10.471Z,39.10
2023-04-15T04:16:12.248Z,39.10
2023-04-15T04:18:14.298Z,39.10
2023-04-15T04:20:15.998Z,39.10
2023-04-15T04:22:17.752Z,39.10
2023-04-15T04:24:19.509Z,39.10
2023-04-15T04:26:21.269Z,39.10
2023-04-15T04:28:22.999Z,39.10
2023-04-15T04:30:24.846Z,39.10
